Dellwood, Wisconsin
Current Conditions -  °F | °C
As of 5:58 AM on Sunday 25 Jan 2015 (Local Time) from KVOK Reporting Station
Overcast Overcast  
Wind Chill: 11°   Ceiling: 2400
Heat Index: 23°   Visibility: 10mi
Dew Point: 19°   Wind: 12mph
Humidity: 84%   Direction: 70°ENE
Pressure: 29.83"   Gusts: 21mph
Location:  43.98°N, 89.94°W
Report Text: KVOK 251158Z AUTO 07010G18KT 10SM OVC024 M05/M07 A2983 RMK AO2 SLP117 60000 T10521075 11002 21052 52026
Loading
Personal Weather Stations






























Interactive Weather Map New forecast layout! Learn more

10-Day Weather Forecast

Advertisements
Track Severe Weather on mobile